sensor_id;sensor_type;location;lat;lon;timestamp;P1;P2;P0
82151;PMS5003;71721;47.904;-122.188;2023-10-13T00:00:57;0;0;
82151;PMS5003;71721;47.904;-122.188;2023-10-13T00:03:22;1;1;
82151;PMS5003;71721;47.904;-122.188;2023-10-13T00:05:47;1;1;
82151;PMS5003;71721;47.904;-122.188;2023-10-13T00:08:13;0;0;
82151;PMS5003;71721;47.904;-122.188;2023-10-13T00:10:38;3;2;
82151;PMS5003;71721;47.904;-122.188;2023-10-13T00:13:03;1;1;
82151;PMS5003;71721;47.904;-122.188;2023-10-13T00:15:28;1;1;
82151;PMS5003;71721;47.904;-122.188;2023-10-13T00:17:54;1;1;
82151;PMS5003;71721;47.904;-122.188;2023-10-13T00:20:19;1;1;
82151;PMS5003;71721;47.904;-122.188;2023-10-13T00:22:44;1;1;
82151;PMS5003;71721;47.904;-122.188;2023-10-13T00:25:09;1;1;
82151;PMS5003;71721;47.904;-122.188;2023-10-13T00:27:34;1;1;
82151;PMS5003;71721;47.904;-122.188;2023-10-13T00:30:00;1;1;
82151;PMS5003;71721;47.904;-122.188;2023-10-13T00:32:25;2;2;
82151;PMS5003;71721;47.904;-122.188;2023-10-13T00:34:50;0;0;
82151;PMS5003;71721;47.904;-122.188;2023-10-13T00:37:16;1;1;
82151;PMS5003;71721;47.904;-122.188;2023-10-13T00:39:41;1;1;
82151;PMS5003;71721;47.904;-122.188;2023-10-13T00:42:06;2;2;
82151;PMS5003;71721;47.904;-122.188;2023-10-13T00:44:32;2;1;
82151;PMS5003;71721;47.904;-122.188;2023-10-13T00:46:57;1;1;
82151;PMS5003;71721;47.904;-122.188;2023-10-13T00:49:22;0;0;
82151;PMS5003;71721;47.904;-122.188;2023-10-13T00:51:47;1;1;
82151;PMS5003;71721;47.904;-122.188;2023-10-13T00:54:13;1;1;
82151;PMS5003;71721;47.904;-122.188;2023-10-13T00:56:39;2;2;
82151;PMS5003;71721;47.904;-122.188;2023-10-13T00:59:03;2;2;
82151;PMS5003;71721;47.904;-122.188;2023-10-13T01:01:29;2;2;
82151;PMS5003;71721;47.904;-122.188;2023-10-13T01:03:54;3;3;
82151;PMS5003;71721;47.904;-122.188;2023-10-13T01:06:19;17;17;
82151;PMS5003;71721;47.904;-122.188;2023-10-13T01:08:45;4;4;
82151;PMS5003;71721;47.904;-122.188;2023-10-13T01:11:10;3;3;
82151;PMS5003;71721;47.904;-122.188;2023-10-13T01:13:36;3;3;
82151;PMS5003;71721;47.904;-122.188;2023-10-13T01:16:01;3;3;
82151;PMS5003;71721;47.904;-122.188;2023-10-13T01:18:26;2;2;
82151;PMS5003;71721;47.904;-122.188;2023-10-13T01:20:52;3;3;
82151;PMS5003;71721;47.904;-122.188;2023-10-13T01:23:17;2;2;
82151;PMS5003;71721;47.904;-122.188;2023-10-13T01:25:42;2;2;
82151;PMS5003;71721;47.904;-122.188;2023-10-13T01:28:08;2;2;
82151;PMS5003;71721;47.904;-122.188;2023-10-13T01:30:34;2;2;
82151;PMS5003;71721;47.904;-122.188;2023-10-13T01:32:59;2;2;
82151;PMS5003;71721;47.904;-122.188;2023-10-13T01:35:24;2;1;
82151;PMS5003;71721;47.904;-122.188;2023-10-13T01:37:50;1;1;
82151;PMS5003;71721;47.904;-122.188;2023-10-13T01:40:15;2;2;
82151;PMS5003;71721;47.904;-122.188;2023-10-13T01:42:40;3;3;
82151;PMS5003;71721;47.904;-122.188;2023-10-13T01:45:06;2;2;
82151;PMS5003;71721;47.904;-122.188;2023-10-13T01:47:31;2;2;
82151;PMS5003;71721;47.904;-122.188;2023-10-13T01:49:56;3;3;
82151;PMS5003;71721;47.904;-122.188;2023-10-13T01:52:22;2;2;
82151;PMS5003;71721;47.904;-122.188;2023-10-13T01:54:48;3;3;
82151;PMS5003;71721;47.904;-122.188;2023-10-13T01:57:13;3;3;
82151;PMS5003;71721;47.904;-122.188;2023-10-13T01:59:38;3;3;
82151;PMS5003;71721;47.904;-122.188;2023-10-13T02:02:04;3;3;
82151;PMS5003;71721;47.904;-122.188;2023-10-13T02:04:31;4;4;
82151;PMS5003;71721;47.904;-122.188;2023-10-13T02:06:55;3;3;
82151;PMS5003;71721;47.904;-122.188;2023-10-13T02:09:20;4;4;
82151;PMS5003;71721;47.904;-122.188;2023-10-13T02:11:45;7;7;
82151;PMS5003;71721;47.904;-122.188;2023-10-13T02:14:11;13;13;
82151;PMS5003;71721;47.904;-122.188;2023-10-13T02:16:36;13;13;
82151;PMS5003;71721;47.904;-122.188;2023-10-13T02:19:01;10;10;
82151;PMS5003;71721;47.904;-122.188;2023-10-13T02:21:27;7;7;
82151;PMS5003;71721;47.904;-122.188;2023-10-13T02:23:52;7;7;
82151;PMS5003;71721;47.904;-122.188;2023-10-13T02:26:18;12;12;
82151;PMS5003;71721;47.904;-122.188;2023-10-13T02:28:43;12;11;
82151;PMS5003;71721;47.904;-122.188;2023-10-13T02:31:09;9;9;
82151;PMS5003;71721;47.904;-122.188;2023-10-13T02:33:34;17;15;
82151;PMS5003;71721;47.904;-122.188;2023-10-13T02:36:00;23;23;
82151;PMS5003;71721;47.904;-122.188;2023-10-13T02:38:25;24;23;
82151;PMS5003;71721;47.904;-122.188;2023-10-13T02:40:50;20;18;
82151;PMS5003;71721;47.904;-122.188;2023-10-13T02:43:16;17;17;
82151;PMS5003;71721;47.904;-122.188;2023-10-13T02:45:41;16;15;
82151;PMS5003;71721;47.904;-122.188;2023-10-13T02:48:06;13;13;
82151;PMS5003;71721;47.904;-122.188;2023-10-13T02:50:32;18;18;
82151;PMS5003;71721;47.904;-122.188;2023-10-13T02:52:57;29;29;
82151;PMS5003;71721;47.904;-122.188;2023-10-13T02:55:23;25;25;
82151;PMS5003;71721;47.904;-122.188;2023-10-13T02:57:48;34;32;
82151;PMS5003;71721;47.904;-122.188;2023-10-13T03:00:14;42;42;
82151;PMS5003;71721;47.904;-122.188;2023-10-13T03:02:39;43;43;
82151;PMS5003;71721;47.904;-122.188;2023-10-13T03:05:05;41;40;
82151;PMS5003;71721;47.904;-122.188;2023-10-13T03:07:30;41;39;
82151;PMS5003;71721;47.904;-122.188;2023-10-13T03:09:57;37;36;
82151;PMS5003;71721;47.904;-122.188;2023-10-13T03:12:21;46;44;
82151;PMS5003;71721;47.904;-122.188;2023-10-13T03:14:48;21;20;
82151;PMS5003;71721;47.904;-122.188;2023-10-13T03:17:13;35;34;
82151;PMS5003;71721;47.904;-122.188;2023-10-13T03:19:41;27;27;
82151;PMS5003;71721;47.904;-122.188;2023-10-13T03:22:05;31;31;
82151;PMS5003;71721;47.904;-122.188;2023-10-13T03:24:30;27;27;
82151;PMS5003;71721;47.904;-122.188;2023-10-13T03:26:56;23;21;
82151;PMS5003;71721;47.904;-122.188;2023-10-13T03:29:22;27;26;
82151;PMS5003;71721;47.904;-122.188;2023-10-13T03:31:47;28;28;
82151;PMS5003;71721;47.904;-122.188;2023-10-13T03:34:12;26;26;
82151;PMS5003;71721;47.904;-122.188;2023-10-13T03:36:38;30;29;
82151;PMS5003;71721;47.904;-122.188;2023-10-13T03:39:04;28;27;
82151;PMS5003;71721;47.904;-122.188;2023-10-13T03:41:29;25;24;
82151;PMS5003;71721;47.904;-122.188;2023-10-13T03:43:54;24;24;
82151;PMS5003;71721;47.904;-122.188;2023-10-13T03:46:20;24;23;
82151;PMS5003;71721;47.904;-122.188;2023-10-13T03:48:45;24;24;
82151;PMS5003;71721;47.904;-122.188;2023-10-13T03:51:11;26;26;
82151;PMS5003;71721;47.904;-122.188;2023-10-13T03:53:37;23;22;
82151;PMS5003;71721;47.904;-122.188;2023-10-13T03:56:02;21;21;
82151;PMS5003;71721;47.904;-122.188;2023-10-13T03:58:27;20;20;
82151;PMS5003;71721;47.904;-122.188;2023-10-13T04:00:52;23;22;
82151;PMS5003;71721;47.904;-122.188;2023-10-13T04:03:18;13;12;
82151;PMS5003;71721;47.904;-122.188;2023-10-13T04:05:43;13;13;
82151;PMS5003;71721;47.904;-122.188;2023-10-13T04:08:09;14;11;
82151;PMS5003;71721;47.904;-122.188;2023-10-13T04:10:34;12;11;
82151;PMS5003;71721;47.904;-122.188;2023-10-13T04:12:59;15;15;
82151;PMS5003;71721;47.904;-122.188;2023-10-13T04:15:25;18;15;
82151;PMS5003;71721;47.904;-122.188;2023-10-13T04:17:51;14;14;
82151;PMS5003;71721;47.904;-122.188;2023-10-13T04:20:16;15;15;
82151;PMS5003;71721;47.904;-122.188;2023-10-13T04:22:42;14;14;
82151;PMS5003;71721;47.904;-122.188;2023-10-13T04:25:06;15;15;
82151;PMS5003;71721;47.904;-122.188;2023-10-13T04:27:32;14;14;
82151;PMS5003;71721;47.904;-122.188;2023-10-13T04:29:58;13;12;
82151;PMS5003;71721;47.904;-122.188;2023-10-13T04:32:23;14;14;
82151;PMS5003;71721;47.904;-122.188;2023-10-13T04:34:49;11;11;
82151;PMS5003;71721;47.904;-122.188;2023-10-13T04:37:14;10;9;
82151;PMS5003;71721;47.904;-122.188;2023-10-13T04:39:40;11;10;
82151;PMS5003;71721;47.904;-122.188;2023-10-13T04:42:05;11;11;
82151;PMS5003;71721;47.904;-122.188;2023-10-13T04:44:30;10;10;
82151;PMS5003;71721;47.904;-122.188;2023-10-13T04:46:56;10;10;
82151;PMS5003;71721;47.904;-122.188;2023-10-13T04:49:22;9;9;
82151;PMS5003;71721;47.904;-122.188;2023-10-13T04:51:47;16;13;
82151;PMS5003;71721;47.904;-122.188;2023-10-13T04:54:12;11;11;
82151;PMS5003;71721;47.904;-122.188;2023-10-13T04:56:38;12;12;
82151;PMS5003;71721;47.904;-122.188;2023-10-13T04:59:04;14;12;
82151;PMS5003;71721;47.904;-122.188;2023-10-13T05:01:29;11;11;
82151;PMS5003;71721;47.904;-122.188;2023-10-13T05:03:54;11;11;
82151;PMS5003;71721;47.904;-122.188;2023-10-13T05:06:20;12;11;
82151;PMS5003;71721;47.904;-122.188;2023-10-13T05:08:45;14;14;
82151;PMS5003;71721;47.904;-122.188;2023-10-13T05:11:11;15;15;
82151;PMS5003;71721;47.904;-122.188;2023-10-13T05:13:36;14;12;
82151;PMS5003;71721;47.904;-122.188;2023-10-13T05:16:02;17;16;
82151;PMS5003;71721;47.904;-122.188;2023-10-13T05:18:28;12;12;
82151;PMS5003;71721;47.904;-122.188;2023-10-13T05:20:55;14;14;
82151;PMS5003;71721;47.904;-122.188;2023-10-13T05:23:18;16;16;
82151;PMS5003;71721;47.904;-122.188;2023-10-13T05:25:44;15;15;
82151;PMS5003;71721;47.904;-122.188;2023-10-13T05:28:09;15;12;
82151;PMS5003;71721;47.904;-122.188;2023-10-13T05:30:35;11;11;
82151;PMS5003;71721;47.904;-122.188;2023-10-13T05:33:00;15;14;
82151;PMS5003;71721;47.904;-122.188;2023-10-13T05:35:26;14;12;
82151;PMS5003;71721;47.904;-122.188;2023-10-13T05:37:51;12;11;
82151;PMS5003;71721;47.904;-122.188;2023-10-13T05:40:17;12;12;
82151;PMS5003;71721;47.904;-122.188;2023-10-13T05:42:42;11;11;
82151;PMS5003;71721;47.904;-122.188;2023-10-13T05:45:08;9;9;
82151;PMS5003;71721;47.904;-122.188;2023-10-13T05:47:34;11;11;
82151;PMS5003;71721;47.904;-122.188;2023-10-13T05:49:59;11;9;
82151;PMS5003;71721;47.904;-122.188;2023-10-13T05:52:24;12;11;
82151;PMS5003;71721;47.904;-122.188;2023-10-13T05:54:50;10;10;
82151;PMS5003;71721;47.904;-122.188;2023-10-13T05:57:15;12;12;
82151;PMS5003;71721;47.904;-122.188;2023-10-13T05:59:41;9;9;
82151;PMS5003;71721;47.904;-122.188;2023-10-13T06:02:06;11;11;
82151;PMS5003;71721;47.904;-122.188;2023-10-13T06:04:32;9;9;
82151;PMS5003;71721;47.904;-122.188;2023-10-13T06:06:57;11;10;
82151;PMS5003;71721;47.904;-122.188;2023-10-13T06:09:23;9;8;
82151;PMS5003;71721;47.904;-122.188;2023-10-13T06:11:49;8;8;
82151;PMS5003;71721;47.904;-122.188;2023-10-13T06:14:14;8;8;
82151;PMS5003;71721;47.904;-122.188;2023-10-13T06:16:40;8;8;
82151;PMS5003;71721;47.904;-122.188;2023-10-13T06:19:05;10;9;
82151;PMS5003;71721;47.904;-122.188;2023-10-13T06:21:31;10;10;
82151;PMS5003;71721;47.904;-122.188;2023-10-13T06:23:56;10;8;
82151;PMS5003;71721;47.904;-122.188;2023-10-13T06:26:22;9;9;
82151;PMS5003;71721;47.904;-122.188;2023-10-13T06:28:48;8;8;
82151;PMS5003;71721;47.904;-122.188;2023-10-13T06:31:13;6;6;
82151;PMS5003;71721;47.904;-122.188;2023-10-13T06:33:38;7;7;
82151;PMS5003;71721;47.904;-122.188;2023-10-13T06:36:04;8;6;
82151;PMS5003;71721;47.904;-122.188;2023-10-13T06:38:30;6;6;
82151;PMS5003;71721;47.904;-122.188;2023-10-13T06:40:55;8;8;
82151;PMS5003;71721;47.904;-122.188;2023-10-13T06:43:21;9;8;
82151;PMS5003;71721;47.904;-122.188;2023-10-13T06:45:46;8;7;
82151;PMS5003;71721;47.904;-122.188;2023-10-13T06:48:12;7;7;
82151;PMS5003;71721;47.904;-122.188;2023-10-13T06:50:38;7;7;
82151;PMS5003;71721;47.904;-122.188;2023-10-13T06:53:03;7;7;
82151;PMS5003;71721;47.904;-122.188;2023-10-13T06:55:29;4;4;
82151;PMS5003;71721;47.904;-122.188;2023-10-13T06:57:54;6;6;
82151;PMS5003;71721;47.904;-122.188;2023-10-13T07:00:20;8;7;
82151;PMS5003;71721;47.904;-122.188;2023-10-13T07:02:45;7;7;
82151;PMS5003;71721;47.904;-122.188;2023-10-13T07:05:11;9;8;
82151;PMS5003;71721;47.904;-122.188;2023-10-13T07:07:38;7;7;
82151;PMS5003;71721;47.904;-122.188;2023-10-13T07:10:02;7;6;
82151;PMS5003;71721;47.904;-122.188;2023-10-13T07:12:28;7;7;
82151;PMS5003;71721;47.904;-122.188;2023-10-13T07:14:53;6;5;
82151;PMS5003;71721;47.904;-122.188;2023-10-13T07:17:19;7;7;
82151;PMS5003;71721;47.904;-122.188;2023-10-13T07:19:44;7;6;
82151;PMS5003;71721;47.904;-122.188;2023-10-13T07:22:10;6;6;
82151;PMS5003;71721;47.904;-122.188;2023-10-13T07:24:35;6;6;
82151;PMS5003;71721;47.904;-122.188;2023-10-13T07:27:01;6;6;
82151;PMS5003;71721;47.904;-122.188;2023-10-13T07:29:27;6;6;
82151;PMS5003;71721;47.904;-122.188;2023-10-13T07:31:52;6;6;
82151;PMS5003;71721;47.904;-122.188;2023-10-13T07:34:18;7;6;
82151;PMS5003;71721;47.904;-122.188;2023-10-13T07:36:43;6;6;
82151;PMS5003;71721;47.904;-122.188;2023-10-13T07:39:09;7;7;
82151;PMS5003;71721;47.904;-122.188;2023-10-13T07:41:35;6;6;
82151;PMS5003;71721;47.904;-122.188;2023-10-13T07:44:00;6;6;
82151;PMS5003;71721;47.904;-122.188;2023-10-13T07:46:26;6;6;
82151;PMS5003;71721;47.904;-122.188;2023-10-13T07:48:51;8;7;
82151;PMS5003;71721;47.904;-122.188;2023-10-13T07:51:17;6;6;
82151;PMS5003;71721;47.904;-122.188;2023-10-13T07:53:43;6;6;
82151;PMS5003;71721;47.904;-122.188;2023-10-13T07:56:08;5;5;
82151;PMS5003;71721;47.904;-122.188;2023-10-13T07:58:34;6;6;
82151;PMS5003;71721;47.904;-122.188;2023-10-13T08:00:59;6;6;
82151;PMS5003;71721;47.904;-122.188;2023-10-13T08:03:25;5;5;
82151;PMS5003;71721;47.904;-122.188;2023-10-13T08:05:52;7;6;
82151;PMS5003;71721;47.904;-122.188;2023-10-13T08:08:16;6;6;
82151;PMS5003;71721;47.904;-122.188;2023-10-13T08:10:41;7;7;
82151;PMS5003;71721;47.904;-122.188;2023-10-13T08:13:07;7;6;
82151;PMS5003;71721;47.904;-122.188;2023-10-13T08:15:33;7;7;
82151;PMS5003;71721;47.904;-122.188;2023-10-13T08:17:58;5;5;
82151;PMS5003;71721;47.904;-122.188;2023-10-13T08:20:29;6;6;
82151;PMS5003;71721;47.904;-122.188;2023-10-13T08:22:49;6;6;
82151;PMS5003;71721;47.904;-122.188;2023-10-13T08:25:15;9;7;
82151;PMS5003;71721;47.904;-122.188;2023-10-13T08:27:40;7;7;
82151;PMS5003;71721;47.904;-122.188;2023-10-13T08:30:07;6;6;
82151;PMS5003;71721;47.904;-122.188;2023-10-13T08:32:32;7;6;
82151;PMS5003;71721;47.904;-122.188;2023-10-13T08:34:58;6;6;
82151;PMS5003;71721;47.904;-122.188;2023-10-13T08:37:23;5;5;
82151;PMS5003;71721;47.904;-122.188;2023-10-13T08:39:48;7;7;
82151;PMS5003;71721;47.904;-122.188;2023-10-13T08:42:14;8;7;
82151;PMS5003;71721;47.904;-122.188;2023-10-13T08:44:40;6;6;
82151;PMS5003;71721;47.904;-122.188;2023-10-13T08:47:05;6;6;
82151;PMS5003;71721;47.904;-122.188;2023-10-13T08:49:32;6;6;
82151;PMS5003;71721;47.904;-122.188;2023-10-13T08:51:56;7;7;
82151;PMS5003;71721;47.904;-122.188;2023-10-13T08:54:22;5;5;
82151;PMS5003;71721;47.904;-122.188;2023-10-13T08:56:48;11;10;
82151;PMS5003;71721;47.904;-122.188;2023-10-13T08:59:13;8;7;
82151;PMS5003;71721;47.904;-122.188;2023-10-13T09:01:39;7;7;
82151;PMS5003;71721;47.904;-122.188;2023-10-13T09:04:05;10;7;
82151;PMS5003;71721;47.904;-122.188;2023-10-13T09:06:30;7;7;
82151;PMS5003;71721;47.904;-122.188;2023-10-13T09:09:04;7;7;
82151;PMS5003;71721;47.904;-122.188;2023-10-13T09:11:21;11;11;
82151;PMS5003;71721;47.904;-122.188;2023-10-13T09:13:47;10;8;
82151;PMS5003;71721;47.904;-122.188;2023-10-13T09:16:12;13;12;
82151;PMS5003;71721;47.904;-122.188;2023-10-13T09:18:38;8;7;
82151;PMS5003;71721;47.904;-122.188;2023-10-13T09:21:04;7;7;
82151;PMS5003;71721;47.904;-122.188;2023-10-13T09:23:29;8;8;
82151;PMS5003;71721;47.904;-122.188;2023-10-13T09:25:55;8;8;
82151;PMS5003;71721;47.904;-122.188;2023-10-13T09:28:20;11;10;
82151;PMS5003;71721;47.904;-122.188;2023-10-13T09:30:46;8;7;
82151;PMS5003;71721;47.904;-122.188;2023-10-13T09:33:11;10;8;
82151;PMS5003;71721;47.904;-122.188;2023-10-13T09:35:37;8;8;
82151;PMS5003;71721;47.904;-122.188;2023-10-13T09:38:02;10;10;
82151;PMS5003;71721;47.904;-122.188;2023-10-13T09:40:28;7;7;
82151;PMS5003;71721;47.904;-122.188;2023-10-13T09:42:54;8;7;
82151;PMS5003;71721;47.904;-122.188;2023-10-13T09:45:19;8;8;
82151;PMS5003;71721;47.904;-122.188;2023-10-13T09:47:45;8;8;
82151;PMS5003;71721;47.904;-122.188;2023-10-13T09:50:10;8;8;
82151;PMS5003;71721;47.904;-122.188;2023-10-13T09:52:36;6;6;
82151;PMS5003;71721;47.904;-122.188;2023-10-13T09:55:05;11;11;
82151;PMS5003;71721;47.904;-122.188;2023-10-13T09:57:29;10;8;
82151;PMS5003;71721;47.904;-122.188;2023-10-13T09:59:52;9;9;
82151;PMS5003;71721;47.904;-122.188;2023-10-13T10:02:18;11;9;
82151;PMS5003;71721;47.904;-122.188;2023-10-13T10:04:50;10;10;
82151;PMS5003;71721;47.904;-122.188;2023-10-13T10:07:09;11;11;
82151;PMS5003;71721;47.904;-122.188;2023-10-13T10:09:35;11;10;
82151;PMS5003;71721;47.904;-122.188;2023-10-13T10:12:20;11;10;
82151;PMS5003;71721;47.904;-122.188;2023-10-13T10:14:33;10;10;
82151;PMS5003;71721;47.904;-122.188;2023-10-13T10:16:56;13;13;
82151;PMS5003;71721;47.904;-122.188;2023-10-13T10:19:17;13;13;
82151;PMS5003;71721;47.904;-122.188;2023-10-13T10:21:42;15;15;
82151;PMS5003;71721;47.904;-122.188;2023-10-13T10:24:16;15;14;
82151;PMS5003;71721;47.904;-122.188;2023-10-13T10:26:34;10;10;
82151;PMS5003;71721;47.904;-122.188;2023-10-13T10:28:59;15;14;
82151;PMS5003;71721;47.904;-122.188;2023-10-13T10:31:31;13;13;
82151;PMS5003;71721;47.904;-122.188;2023-10-13T10:33:51;12;12;
82151;PMS5003;71721;47.904;-122.188;2023-10-13T10:36:16;13;12;
82151;PMS5003;71721;47.904;-122.188;2023-10-13T10:38:58;11;11;
82151;PMS5003;71721;47.904;-122.188;2023-10-13T10:41:08;10;9;
82151;PMS5003;71721;47.904;-122.188;2023-10-13T10:43:36;11;11;
82151;PMS5003;71721;47.904;-122.188;2023-10-13T10:45:59;9;9;
82151;PMS5003;71721;47.904;-122.188;2023-10-13T10:48:24;10;10;
82151;PMS5003;71721;47.904;-122.188;2023-10-13T10:50:54;11;11;
82151;PMS5003;71721;47.904;-122.188;2023-10-13T10:53:15;11;11;
82151;PMS5003;71721;47.904;-122.188;2023-10-13T10:55:41;10;10;
82151;PMS5003;71721;47.904;-122.188;2023-10-13T10:58:07;10;9;
82151;PMS5003;71721;47.904;-122.188;2023-10-13T11:00:32;10;10;
82151;PMS5003;71721;47.904;-122.188;2023-10-13T11:02:58;9;9;
82151;PMS5003;71721;47.904;-122.188;2023-10-13T11:05:24;9;9;
82151;PMS5003;71721;47.904;-122.188;2023-10-13T11:07:49;6;6;
82151;PMS5003;71721;47.904;-122.188;2023-10-13T11:10:15;7;7;
82151;PMS5003;71721;47.904;-122.188;2023-10-13T11:12:40;9;9;
82151;PMS5003;71721;47.904;-122.188;2023-10-13T11:15:06;9;9;
82151;PMS5003;71721;47.904;-122.188;2023-10-13T11:17:32;9;9;
82151;PMS5003;71721;47.904;-122.188;2023-10-13T11:19:57;9;9;
82151;PMS5003;71721;47.904;-122.188;2023-10-13T11:22:22;6;6;
82151;PMS5003;71721;47.904;-122.188;2023-10-13T11:24:48;7;7;
82151;PMS5003;71721;47.904;-122.188;2023-10-13T11:27:14;9;9;
82151;PMS5003;71721;47.904;-122.188;2023-10-13T11:29:39;9;9;
82151;PMS5003;71721;47.904;-122.188;2023-10-13T11:32:05;7;7;
82151;PMS5003;71721;47.904;-122.188;2023-10-13T11:34:31;10;10;
82151;PMS5003;71721;47.904;-122.188;2023-10-13T11:36:56;11;10;
82151;PMS5003;71721;47.904;-122.188;2023-10-13T11:39:22;9;9;
82151;PMS5003;71721;47.904;-122.188;2023-10-13T11:41:48;6;6;
82151;PMS5003;71721;47.904;-122.188;2023-10-13T11:44:13;6;6;
82151;PMS5003;71721;47.904;-122.188;2023-10-13T11:46:39;9;7;
82151;PMS5003;71721;47.904;-122.188;2023-10-13T11:49:05;12;9;
82151;PMS5003;71721;47.904;-122.188;2023-10-13T11:51:30;9;8;
82151;PMS5003;71721;47.904;-122.188;2023-10-13T11:53:56;7;7;
82151;PMS5003;71721;47.904;-122.188;2023-10-13T11:56:21;7;7;
82151;PMS5003;71721;47.904;-122.188;2023-10-13T11:58:47;6;6;
82151;PMS5003;71721;47.904;-122.188;2023-10-13T12:01:13;10;9;
82151;PMS5003;71721;47.904;-122.188;2023-10-13T12:03:39;9;9;
82151;PMS5003;71721;47.904;-122.188;2023-10-13T12:06:08;7;7;
82151;PMS5003;71721;47.904;-122.188;2023-10-13T12:08:30;7;7;
82151;PMS5003;71721;47.904;-122.188;2023-10-13T12:10:55;7;7;
82151;PMS5003;71721;47.904;-122.188;2023-10-13T12:13:21;12;12;
82151;PMS5003;71721;47.904;-122.188;2023-10-13T12:15:47;5;5;
82151;PMS5003;71721;47.904;-122.188;2023-10-13T12:18:12;6;6;
82151;PMS5003;71721;47.904;-122.188;2023-10-13T12:20:38;6;6;
82151;PMS5003;71721;47.904;-122.188;2023-10-13T12:23:04;7;7;
82151;PMS5003;71721;47.904;-122.188;2023-10-13T12:25:29;5;5;
82151;PMS5003;71721;47.904;-122.188;2023-10-13T12:27:55;9;8;
82151;PMS5003;71721;47.904;-122.188;2023-10-13T12:30:20;10;8;
82151;PMS5003;71721;47.904;-122.188;2023-10-13T12:32:46;9;9;
82151;PMS5003;71721;47.904;-122.188;2023-10-13T12:35:12;9;9;
82151;PMS5003;71721;47.904;-122.188;2023-10-13T12:37:37;11;10;
82151;PMS5003;71721;47.904;-122.188;2023-10-13T12:40:03;8;8;
82151;PMS5003;71721;47.904;-122.188;2023-10-13T12:42:29;8;8;
82151;PMS5003;71721;47.904;-122.188;2023-10-13T12:44:54;6;6;
82151;PMS5003;71721;47.904;-122.188;2023-10-13T12:47:20;9;9;
82151;PMS5003;71721;47.904;-122.188;2023-10-13T12:49:46;10;10;
82151;PMS5003;71721;47.904;-122.188;2023-10-13T12:52:12;9;7;
82151;PMS5003;71721;47.904;-122.188;2023-10-13T12:54:37;9;7;
82151;PMS5003;71721;47.904;-122.188;2023-10-13T12:57:03;8;8;
82151;PMS5003;71721;47.904;-122.188;2023-10-13T12:59:28;9;9;
82151;PMS5003;71721;47.904;-122.188;2023-10-13T13:01:54;6;6;
82151;PMS5003;71721;47.904;-122.188;2023-10-13T13:04:20;8;8;
82151;PMS5003;71721;47.904;-122.188;2023-10-13T13:06:45;7;7;
82151;PMS5003;71721;47.904;-122.188;2023-10-13T13:09:12;6;5;
82151;PMS5003;71721;47.904;-122.188;2023-10-13T13:11:36;7;7;
82151;PMS5003;71721;47.904;-122.188;2023-10-13T13:14:02;7;7;
82151;PMS5003;71721;47.904;-122.188;2023-10-13T13:16:28;7;7;
82151;PMS5003;71721;47.904;-122.188;2023-10-13T13:18:53;6;6;
82151;PMS5003;71721;47.904;-122.188;2023-10-13T13:21:18;6;6;
82151;PMS5003;71721;47.904;-122.188;2023-10-13T13:23:44;6;6;
82151;PMS5003;71721;47.904;-122.188;2023-10-13T13:26:09;10;10;
82151;PMS5003;71721;47.904;-122.188;2023-10-13T13:28:35;9;7;
82151;PMS5003;71721;47.904;-122.188;2023-10-13T13:31:00;16;14;
82151;PMS5003;71721;47.904;-122.188;2023-10-13T13:33:26;12;12;
82151;PMS5003;71721;47.904;-122.188;2023-10-13T13:35:57;10;9;
82151;PMS5003;71721;47.904;-122.188;2023-10-13T13:38:17;9;9;
82151;PMS5003;71721;47.904;-122.188;2023-10-13T13:40:43;12;10;
82151;PMS5003;71721;47.904;-122.188;2023-10-13T13:43:09;12;10;
82151;PMS5003;71721;47.904;-122.188;2023-10-13T13:45:34;8;8;
82151;PMS5003;71721;47.904;-122.188;2023-10-13T13:48:00;6;6;
82151;PMS5003;71721;47.904;-122.188;2023-10-13T13:50:26;5;5;
82151;PMS5003;71721;47.904;-122.188;2023-10-13T13:52:51;6;6;
82151;PMS5003;71721;47.904;-122.188;2023-10-13T13:55:17;8;8;
82151;PMS5003;71721;47.904;-122.188;2023-10-13T13:57:43;8;8;
82151;PMS5003;71721;47.904;-122.188;2023-10-13T14:00:09;8;8;
82151;PMS5003;71721;47.904;-122.188;2023-10-13T14:02:34;6;6;
82151;PMS5003;71721;47.904;-122.188;2023-10-13T14:05:00;8;8;
82151;PMS5003;71721;47.904;-122.188;2023-10-13T14:07:25;6;6;
82151;PMS5003;71721;47.904;-122.188;2023-10-13T14:09:51;8;8;
82151;PMS5003;71721;47.904;-122.188;2023-10-13T14:12:21;8;8;
82151;PMS5003;71721;47.904;-122.188;2023-10-13T14:14:42;9;9;
82151;PMS5003;71721;47.904;-122.188;2023-10-13T14:17:08;8;8;
82151;PMS5003;71721;47.904;-122.188;2023-10-13T14:19:34;8;8;
82151;PMS5003;71721;47.904;-122.188;2023-10-13T14:21:59;8;6;
82151;PMS5003;71721;47.904;-122.188;2023-10-13T14:24:25;9;8;
82151;PMS5003;71721;47.904;-122.188;2023-10-13T14:26:50;10;9;
82151;PMS5003;71721;47.904;-122.188;2023-10-13T14:29:16;11;10;
82151;PMS5003;71721;47.904;-122.188;2023-10-13T14:31:41;11;11;
82151;PMS5003;71721;47.904;-122.188;2023-10-13T14:34:07;9;9;
82151;PMS5003;71721;47.904;-122.188;2023-10-13T14:36:33;7;7;
82151;PMS5003;71721;47.904;-122.188;2023-10-13T14:38:58;7;7;
82151;PMS5003;71721;47.904;-122.188;2023-10-13T14:41:24;8;8;
82151;PMS5003;71721;47.904;-122.188;2023-10-13T14:43:50;6;6;
82151;PMS5003;71721;47.904;-122.188;2023-10-13T14:46:16;6;5;
82151;PMS5003;71721;47.904;-122.188;2023-10-13T14:48:41;5;5;
82151;PMS5003;71721;47.904;-122.188;2023-10-13T14:51:08;6;6;
82151;PMS5003;71721;47.904;-122.188;2023-10-13T14:53:33;6;6;
82151;PMS5003;71721;47.904;-122.188;2023-10-13T14:56:00;5;5;
82151;PMS5003;71721;47.904;-122.188;2023-10-13T14:58:24;6;6;
82151;PMS5003;71721;47.904;-122.188;2023-10-13T15:00:49;7;7;
82151;PMS5003;71721;47.904;-122.188;2023-10-13T15:03:15;7;7;
82151;PMS5003;71721;47.904;-122.188;2023-10-13T15:05:41;6;6;
82151;PMS5003;71721;47.904;-122.188;2023-10-13T15:08:06;6;6;
82151;PMS5003;71721;47.904;-122.188;2023-10-13T15:10:32;6;5;
82151;PMS5003;71721;47.904;-122.188;2023-10-13T15:12:58;6;6;
82151;PMS5003;71721;47.904;-122.188;2023-10-13T15:15:23;5;5;
82151;PMS5003;71721;47.904;-122.188;2023-10-13T15:17:49;6;6;
82151;PMS5003;71721;47.904;-122.188;2023-10-13T15:20:15;6;6;
82151;PMS5003;71721;47.904;-122.188;2023-10-13T15:22:40;4;4;
82151;PMS5003;71721;47.904;-122.188;2023-10-13T15:25:06;4;3;
82151;PMS5003;71721;47.904;-122.188;2023-10-13T15:27:31;5;5;
82151;PMS5003;71721;47.904;-122.188;2023-10-13T15:29:57;5;5;
82151;PMS5003;71721;47.904;-122.188;2023-10-13T15:32:23;7;6;
82151;PMS5003;71721;47.904;-122.188;2023-10-13T15:34:48;6;6;
82151;PMS5003;71721;47.904;-122.188;2023-10-13T15:37:14;5;5;
82151;PMS5003;71721;47.904;-122.188;2023-10-13T15:39:39;5;5;